createdAt,value
2023-02-17T00:01:11.859Z,16.27
2023-02-17T00:03:41.220Z,16.70
2023-02-17T00:06:10.530Z,16.15
2023-02-17T00:08:39.169Z,16.60
2023-02-17T00:11:07.791Z,17.35
2023-02-17T00:13:36.011Z,15.55
2023-02-17T00:16:08.422Z,17.70
2023-02-17T00:18:36.639Z,17.63
2023-02-17T00:21:15.635Z,17.75
2023-02-17T00:23:43.644Z,16.30
2023-02-17T00:26:11.947Z,17.58
2023-02-17T00:28:40.140Z,17.75
2023-02-17T00:31:09.619Z,17.15
2023-02-17T00:33:38.453Z,16.75
2023-02-17T00:36:08.469Z,17.52
2023-02-17T00:38:39.464Z,18.10
2023-02-17T00:41:07.661Z,17.40
2023-02-17T00:43:35.634Z,17.73
2023-02-17T00:46:04.902Z,17.90
2023-02-17T00:48:33.464Z,18.55
2023-02-17T00:51:01.559Z,17.75
2023-02-17T00:53:29.686Z,17.20
2023-02-17T00:55:58.904Z,16.05
2023-02-17T00:58:26.813Z,18.40
2023-02-17T01:00:57.059Z,17.45
2023-02-17T01:03:25.190Z,17.75
2023-02-17T01:05:54.537Z,18.70
2023-02-17T01:08:22.966Z,18.00
2023-02-17T01:10:52.865Z,17.38
2023-02-17T01:13:22.433Z,18.20
2023-02-17T01:15:52.487Z,17.20
2023-02-17T01:18:24.417Z,17.25
2023-02-17T01:20:52.893Z,17.08
2023-02-17T01:23:20.816Z,18.58
2023-02-17T01:25:50.711Z,17.77
2023-02-17T01:28:21.362Z,17.30
2023-02-17T01:30:50.757Z,18.65
2023-02-17T01:33:18.706Z,17.25
2023-02-17T01:35:46.587Z,18.25
2023-02-17T01:38:14.489Z,18.52
2023-02-17T01:40:48.316Z,17.42
2023-02-17T01:43:18.897Z,16.63
2023-02-17T01:45:54.311Z,17.65
2023-02-17T01:48:25.932Z,18.58
2023-02-17T01:50:56.479Z,17.17
2023-02-17T01:53:32.728Z,17.05
2023-02-17T01:56:00.697Z,17.70
2023-02-17T01:58:29.834Z,17.60
2023-02-17T02:01:02.396Z,18.75
2023-02-17T02:03:34.230Z,17.30
2023-02-17T02:06:07.154Z,18.70
2023-02-17T02:08:43.823Z,17.17
2023-02-17T02:11:11.689Z,17.77
2023-02-17T02:13:39.635Z,18.40
2023-02-17T02:16:18.648Z,19.85
2023-02-17T02:18:56.747Z,19.75
2023-02-17T02:21:53.674Z,19.75
2023-02-17T02:24:45.260Z,19.75
2023-02-17T02:27:38.658Z,20.38
2023-02-17T02:30:31.544Z,19.45
2023-02-17T02:33:08.801Z,19.77
2023-02-17T02:35:48.520Z,18.73
2023-02-17T02:38:22.826Z,18.50
2023-02-17T02:40:55.132Z,18.50
2023-02-17T02:43:25.067Z,19.58
2023-02-17T02:45:53.133Z,19.67
2023-02-17T02:48:22.664Z,19.75
2023-02-17T02:51:23.323Z,19.50
2023-02-17T02:54:03.435Z,20.45
2023-02-17T02:56:41.852Z,18.35
2023-02-17T02:59:23.105Z,20.13
2023-02-17T03:02:03.497Z,18.85
2023-02-17T03:04:37.770Z,19.35
2023-02-17T03:07:12.748Z,19.65
2023-02-17T03:09:42.364Z,19.23
2023-02-17T03:12:13.800Z,22.05
2023-02-17T03:14:44.261Z,19.85
2023-02-17T03:17:12.532Z,19.60
2023-02-17T03:19:42.166Z,19.92
2023-02-17T03:22:17.780Z,20.20
2023-02-17T03:24:48.817Z,18.67
2023-02-17T03:27:16.746Z,19.95
2023-02-17T03:29:44.650Z,21.75
2023-02-17T03:32:12.908Z,20.77
2023-02-17T03:34:42.228Z,20.05
2023-02-17T03:37:10.098Z,21.05
2023-02-17T03:39:38.041Z,20.45
2023-02-17T03:42:05.956Z,19.80
2023-02-17T03:44:33.840Z,19.83
2023-02-17T03:47:01.728Z,20.77
2023-02-17T03:49:29.802Z,20.88
2023-02-17T03:51:59.507Z,21.65
2023-02-17T03:54:27.758Z,19.55
2023-02-17T03:56:55.632Z,20.15
2023-02-17T03:59:23.653Z,20.27
2023-02-17T04:01:51.637Z,20.20
2023-02-17T04:04:19.735Z,20.65
2023-02-17T04:06:47.672Z,20.67
2023-02-17T04:09:17.212Z,20.48
2023-02-17T04:11:46.086Z,20.42
2023-02-17T04:14:15.707Z,19.40
2023-02-17T04:16:43.703Z,19.88
2023-02-17T04:19:12.442Z,20.25
2023-02-17T04:21:40.784Z,19.88
2023-02-17T04:24:09.263Z,20.52
2023-02-17T04:26:39.671Z,20.73
2023-02-17T04:29:07.735Z,21.20
2023-02-17T04:31:36.230Z,20.92
2023-02-17T04:34:04.449Z,19.33
2023-02-17T04:36:33.924Z,21.45
2023-02-17T04:39:03.464Z,21.95
2023-02-17T04:41:33.344Z,20.80
2023-02-17T04:44:02.865Z,20.48
2023-02-17T04:46:31.150Z,20.10
2023-02-17T04:48:59.374Z,19.95
2023-02-17T04:51:27.517Z,19.15
2023-02-17T04:53:58.137Z,19.55
2023-02-17T04:56:26.083Z,19.40
2023-02-17T04:58:54.078Z,19.83
2023-02-17T05:01:23.382Z,19.73
2023-02-17T05:03:51.484Z,19.60
2023-02-17T05:06:19.675Z,18.90
2023-02-17T05:08:48.316Z,18.17
2023-02-17T05:11:16.365Z,18.95
2023-02-17T05:13:44.417Z,18.23
2023-02-17T05:16:12.398Z,20.05
2023-02-17T05:18:41.695Z,19.10
2023-02-17T05:21:09.558Z,19.27
2023-02-17T05:23:41.229Z,19.42
2023-02-17T05:26:09.640Z,18.83
2023-02-17T05:28:38.404Z,19.88
2023-02-17T05:31:06.585Z,19.38
2023-02-17T05:33:34.646Z,19.10
2023-02-17T05:36:05.922Z,18.88
2023-02-17T05:38:34.675Z,19.48
2023-02-17T05:41:02.574Z,19.38
2023-02-17T05:43:30.877Z,19.27
2023-02-17T05:46:03.155Z,18.80
2023-02-17T05:48:31.395Z,19.60
2023-02-17T05:50:59.344Z,18.08
2023-02-17T05:53:28.818Z,19.63
2023-02-17T05:55:56.673Z,19.67
2023-02-17T05:58:25.052Z,19.48
2023-02-17T06:00:52.889Z,20.58
2023-02-17T06:03:20.836Z,19.23
2023-02-17T06:05:48.758Z,18.40
2023-02-17T06:08:16.637Z,19.52
2023-02-17T06:10:45.851Z,19.10
2023-02-17T06:13:13.710Z,19.10
2023-02-17T06:15:42.056Z,18.95
2023-02-17T06:18:09.957Z,19.52
2023-02-17T06:20:38.064Z,18.65
2023-02-17T06:23:05.952Z,18.70
2023-02-17T06:25:33.972Z,19.08
2023-02-17T06:28:03.224Z,18.05
2023-02-17T06:30:31.433Z,18.65
2023-02-17T06:32:59.732Z,18.52
2023-02-17T06:35:27.701Z,17.90
2023-02-17T06:37:55.620Z,18.08
2023-02-17T06:40:23.765Z,17.40
2023-02-17T06:42:51.639Z,17.48
2023-02-17T06:45:21.303Z,18.38
2023-02-17T06:47:49.184Z,17.60
2023-02-17T06:50:17.180Z,17.65
2023-02-17T06:52:45.050Z,16.73
2023-02-17T06:55:12.871Z,16.77
2023-02-17T06:57:40.770Z,17.00
2023-02-17T07:00:09.697Z,16.73
2023-02-17T07:02:40.202Z,17.42
2023-02-17T07:05:09.004Z,17.52
2023-02-17T07:07:36.840Z,17.35
2023-02-17T07:10:05.048Z,15.65
2023-02-17T07:12:32.911Z,15.70
2023-02-17T07:15:00.748Z,16.20
2023-02-17T07:17:28.666Z,14.75
2023-02-17T07:19:57.937Z,15.07
2023-02-17T07:22:26.784Z,14.70
2023-02-17T07:24:54.669Z,14.77
2023-02-17T07:27:22.550Z,14.93
2023-02-17T07:29:50.494Z,13.80
2023-02-17T07:32:18.451Z,14.32
2023-02-17T07:34:46.519Z,13.35
2023-02-17T07:37:15.777Z,13.45
2023-02-17T07:39:43.831Z,13.63
2023-02-17T07:42:11.771Z,13.13
2023-02-17T07:44:40.451Z,12.45
2023-02-17T07:47:08.332Z,13.20
2023-02-17T07:49:36.234Z,14.32
2023-02-17T07:52:05.425Z,13.20
2023-02-17T07:54:35.143Z,13.02
2023-02-17T07:57:03.069Z,12.00
2023-02-17T07:59:31.055Z,13.35
2023-02-17T08:01:59.016Z,12.13
2023-02-17T08:04:26.962Z,12.15
2023-02-17T08:06:54.944Z,12.10
2023-02-17T08:09:40.117Z,12.50
2023-02-17T08:12:33.793Z,11.38
2023-02-17T08:15:01.957Z,12.48
2023-02-17T08:17:30.394Z,11.80
2023-02-17T08:20:00.493Z,11.43
2023-02-17T08:22:30.028Z,12.10
2023-02-17T08:24:57.953Z,10.98
2023-02-17T08:27:27.434Z,11.80
2023-02-17T08:29:55.902Z,10.80
2023-02-17T08:32:24.033Z,10.85
2023-02-17T08:34:51.965Z,11.18
2023-02-17T08:37:19.876Z,11.02
2023-02-17T08:39:47.718Z,11.25
2023-02-17T08:42:15.622Z,11.63
2023-02-17T08:44:45.048Z,12.73
2023-02-17T08:47:12.972Z,11.75
2023-02-17T08:49:41.894Z,11.30
2023-02-17T08:52:09.871Z,11.35
2023-02-17T08:54:38.429Z,11.75
2023-02-17T08:57:06.685Z,10.85
2023-02-17T08:59:34.750Z,10.50
2023-02-17T09:02:04.109Z,11.35
2023-02-17T09:04:31.991Z,11.27
2023-02-17T09:06:59.923Z,11.35
2023-02-17T09:09:28.330Z,11.10
2023-02-17T09:11:57.169Z,11.25
2023-02-17T09:14:25.455Z,11.13
2023-02-17T09:16:54.318Z,11.15
2023-02-17T09:19:24.654Z,11.70
2023-02-17T09:21:52.816Z,11.63
2023-02-17T09:24:20.767Z,11.10
2023-02-17T09:26:48.690Z,11.48
2023-02-17T09:29:16.676Z,12.30
2023-02-17T09:31:46.096Z,11.70
2023-02-17T09:34:15.472Z,12.73
2023-02-17T09:36:44.723Z,12.05
2023-02-17T09:39:14.169Z,12.02
2023-02-17T09:41:45.241Z,12.75
2023-02-17T09:44:21.891Z,11.85
2023-02-17T09:47:02.273Z,11.68
2023-02-17T09:49:37.996Z,11.73
2023-02-17T09:52:13.314Z,11.75
2023-02-17T09:54:58.046Z,10.88
2023-02-17T09:57:30.529Z,11.35
2023-02-17T10:00:03.875Z,12.47
2023-02-17T10:02:42.909Z,11.73
2023-02-17T10:05:15.625Z,12.70
2023-02-17T10:07:49.396Z,12.00
2023-02-17T10:10:21.949Z,13.18
2023-02-17T10:12:54.045Z,13.07
2023-02-17T10:15:25.941Z,12.02
2023-02-17T10:17:59.770Z,12.38
2023-02-17T10:20:33.805Z,12.50
2023-02-17T10:23:08.165Z,13.18
2023-02-17T10:25:56.865Z,12.82
2023-02-17T10:28:40.497Z,12.82
2023-02-17T10:33:49.112Z,13.02
2023-02-17T10:36:26.100Z,12.63
2023-02-17T10:39:04.352Z,14.00
2023-02-17T10:41:37.386Z,12.77
2023-02-17T10:44:10.454Z,13.05
2023-02-17T10:46:43.227Z,12.57
2023-02-17T10:49:19.187Z,12.38
2023-02-17T10:51:47.444Z,12.75
2023-02-17T10:54:24.283Z,12.90
2023-02-17T10:56:55.480Z,12.90
2023-02-17T10:59:28.375Z,12.35
2023-02-17T11:01:59.531Z,12.10
2023-02-17T11:04:27.429Z,12.13
2023-02-17T11:06:56.202Z,12.43
2023-02-17T11:09:28.796Z,12.40
2023-02-17T11:12:01.376Z,12.18
2023-02-17T11:14:31.356Z,12.37
2023-02-17T11:17:00.901Z,12.77
2023-02-17T11:19:33.930Z,11.88
2023-02-17T11:22:04.243Z,10.98
2023-02-17T11:24:35.497Z,11.98
2023-02-17T11:27:05.753Z,11.85
2023-02-17T11:29:34.514Z,11.88
2023-02-17T11:32:07.224Z,11.68
2023-02-17T11:34:37.112Z,11.65
2023-02-17T11:37:20.242Z,10.93
2023-02-17T11:39:53.392Z,11.57
2023-02-17T11:42:23.643Z,11.10
2023-02-17T11:44:52.431Z,10.48
2023-02-17T11:47:30.717Z,10.75
2023-02-17T11:50:39.058Z,10.48
2023-02-17T11:53:21.014Z,11.13
2023-02-17T11:56:01.753Z,10.20
2023-02-17T11:58:44.959Z,9.82
2023-02-17T12:01:31.071Z,9.13
2023-02-17T12:04:30.684Z,9.38
2023-02-17T12:07:31.146Z,9.18
2023-02-17T12:10:06.168Z,9.15
2023-02-17T12:12:52.137Z,8.90
2023-02-17T12:15:36.682Z,8.48
2023-02-17T12:18:16.921Z,8.13
2023-02-17T12:20:52.116Z,9.50
2023-02-17T12:23:37.072Z,8.30
2023-02-17T12:26:13.242Z,7.90
2023-02-17T12:28:52.955Z,7.97
2023-02-17T12:31:36.035Z,8.05
2023-02-17T12:34:15.330Z,8.27
2023-02-17T12:36:44.569Z,7.93
2023-02-17T12:39:17.694Z,6.93
2023-02-17T12:41:52.269Z,7.25
2023-02-17T12:44:24.613Z,7.53
2023-02-17T12:46:54.642Z,7.60
2023-02-17T12:49:28.555Z,7.00
2023-02-17T12:52:01.520Z,7.63
2023-02-17T12:54:35.355Z,6.55
2023-02-17T12:57:14.666Z,5.93
2023-02-17T12:59:45.600Z,6.85
2023-02-17T13:02:15.541Z,5.85
2023-02-17T13:04:46.185Z,5.97
2023-02-17T13:07:28.128Z,5.68
2023-02-17T13:09:57.867Z,5.50
2023-02-17T13:12:41.585Z,13.13
2023-02-17T13:18:01.283Z,5.93
2023-02-17T13:20:45.783Z,6.03
2023-02-17T13:23:16.068Z,5.32
2023-02-17T13:25:44.016Z,5.45
2023-02-17T13:28:32.551Z,5.00
2023-02-17T13:31:11.243Z,4.25
2023-02-17T13:33:47.414Z,4.50
2023-02-17T13:36:18.165Z,4.70
2023-02-17T13:38:56.906Z,4.50
2023-02-17T13:41:24.836Z,4.97
2023-02-17T13:43:52.733Z,4.22
2023-02-17T13:46:25.170Z,4.28
2023-02-17T13:49:02.929Z,4.30
2023-02-17T13:51:33.317Z,4.72
2023-02-17T13:54:10.487Z,3.90
2023-02-17T13:56:38.419Z,3.95
2023-02-17T13:59:17.918Z,3.95
2023-02-17T14:01:47.105Z,4.05
2023-02-17T14:04:22.264Z,4.38
2023-02-17T14:06:51.155Z,3.90
2023-02-17T14:09:24.006Z,4.22
2023-02-17T14:11:52.844Z,3.92
2023-02-17T14:14:23.041Z,4.00
2023-02-17T14:16:59.431Z,4.22
2023-02-17T14:19:29.299Z,4.18
2023-02-17T14:22:02.713Z,4.85
2023-02-17T14:27:02.186Z,4.50
2023-02-17T14:29:48.852Z,3.88
2023-02-17T14:32:32.524Z,4.40
2023-02-17T14:37:48.908Z,4.65
2023-02-17T14:40:19.269Z,4.82
2023-02-17T14:42:47.641Z,4.65
2023-02-17T14:45:16.326Z,4.38
2023-02-17T14:47:44.269Z,4.88
2023-02-17T14:50:14.926Z,4.45
2023-02-17T14:52:45.305Z,5.47
2023-02-17T14:55:19.773Z,5.57
2023-02-17T14:57:47.707Z,5.80
2023-02-17T15:00:16.599Z,4.95
2023-02-17T15:02:44.589Z,5.65
2023-02-17T15:05:13.868Z,6.47
2023-02-17T15:07:42.336Z,6.53
2023-02-17T15:10:20.317Z,6.20
2023-02-17T15:12:48.283Z,6.40
2023-02-17T15:15:17.800Z,7.30
2023-02-17T15:17:46.358Z,8.40
2023-02-17T15:20:17.292Z,6.65
2023-02-17T15:22:45.425Z,7.25
2023-02-17T15:25:15.794Z,6.65
2023-02-17T15:27:44.967Z,7.80
2023-02-17T15:30:15.325Z,6.88
2023-02-17T15:32:43.962Z,7.47
2023-02-17T15:35:17.995Z,7.68
2023-02-17T15:37:46.174Z,7.75
2023-02-17T15:40:15.439Z,8.77
2023-02-17T15:42:43.999Z,7.88
2023-02-17T15:45:15.112Z,7.20
2023-02-17T15:47:43.275Z,8.13
2023-02-17T15:50:20.653Z,7.78
2023-02-17T15:52:50.077Z,8.00
2023-02-17T15:55:19.363Z,7.90
2023-02-17T15:57:49.424Z,8.05
2023-02-17T16:00:21.045Z,8.10
2023-02-17T16:02:49.078Z,7.60
2023-02-17T16:05:20.742Z,7.45
2023-02-17T16:07:48.888Z,7.25
2023-02-17T16:10:19.896Z,7.55
2023-02-17T16:12:49.228Z,8.35
2023-02-17T16:15:19.767Z,6.90
2023-02-17T16:17:48.885Z,8.35
2023-02-17T16:20:20.699Z,8.18
2023-02-17T16:22:49.068Z,7.22
2023-02-17T16:25:18.455Z,7.72
2023-02-17T16:27:48.716Z,8.35
2023-02-17T16:30:22.335Z,6.78
2023-02-17T16:32:51.082Z,7.07
2023-02-17T16:35:22.458Z,6.95
2023-02-17T16:37:54.487Z,7.35
2023-02-17T16:40:24.667Z,6.45
2023-02-17T16:42:52.878Z,6.00
2023-02-17T16:45:23.546Z,5.80
2023-02-17T16:47:53.380Z,5.63
2023-02-17T16:50:27.214Z,5.32
2023-02-17T16:52:56.573Z,5.18
2023-02-17T16:55:27.754Z,5.30
2023-02-17T16:57:55.665Z,4.57
2023-02-17T17:00:27.700Z,4.95
2023-02-17T17:02:56.797Z,4.50
2023-02-17T17:05:27.925Z,4.70
2023-02-17T17:07:56.480Z,4.20
2023-02-17T17:10:27.310Z,4.03
2023-02-17T17:12:55.502Z,4.10
2023-02-17T17:15:23.892Z,3.72
2023-02-17T17:17:54.321Z,3.90
2023-02-17T17:20:27.904Z,4.03
2023-02-17T17:22:57.455Z,3.80
2023-02-17T17:25:25.434Z,4.28
2023-02-17T17:27:54.145Z,3.78
2023-02-17T17:30:24.686Z,3.45
2023-02-17T17:32:53.084Z,3.80
2023-02-17T17:35:21.420Z,3.72
2023-02-17T17:37:50.019Z,3.50
2023-02-17T17:40:22.562Z,3.85
2023-02-17T17:42:50.702Z,3.73
2023-02-17T17:45:18.981Z,3.35
2023-02-17T17:47:47.582Z,3.22
2023-02-17T17:50:18.668Z,3.40
2023-02-17T17:52:47.308Z,3.67
2023-02-17T17:55:15.734Z,3.65
2023-02-17T17:57:45.100Z,3.42
2023-02-17T18:00:15.876Z,3.00
2023-02-17T18:02:43.940Z,3.05
2023-02-17T18:05:12.307Z,2.90
2023-02-17T18:07:41.762Z,3.38
2023-02-17T18:10:12.329Z,3.50
2023-02-17T18:12:43.036Z,3.33
2023-02-17T18:15:12.859Z,3.55
2023-02-17T18:17:42.976Z,3.53
2023-02-17T18:20:12.655Z,3.17
2023-02-17T18:22:40.980Z,3.10
2023-02-17T18:25:09.963Z,2.70
2023-02-17T18:27:39.594Z,2.80
2023-02-17T18:30:10.078Z,2.22
2023-02-17T18:32:39.371Z,2.72
2023-02-17T18:35:07.741Z,2.38
2023-02-17T18:37:35.770Z,2.17
2023-02-17T18:40:05.038Z,2.55
2023-02-17T18:42:34.029Z,2.30
2023-02-17T18:45:02.187Z,2.45
2023-02-17T18:47:31.186Z,1.95
2023-02-17T18:50:00.418Z,2.13
2023-02-17T18:52:28.434Z,2.20
2023-02-17T18:54:56.493Z,1.80
2023-02-17T18:57:24.396Z,1.42
2023-02-17T18:59:52.349Z,1.83
2023-02-17T19:02:21.981Z,1.38
2023-02-17T19:04:52.985Z,1.67
2023-02-17T19:07:22.426Z,1.55
2023-02-17T19:09:51.648Z,1.75
2023-02-17T19:12:19.785Z,1.20
2023-02-17T19:14:48.447Z,1.50
2023-02-17T19:17:21.192Z,1.17
2023-02-17T19:19:49.660Z,1.17
2023-02-17T19:22:20.269Z,1.25
2023-02-17T19:24:52.338Z,0.90
2023-02-17T19:27:20.474Z,0.82
2023-02-17T19:29:48.416Z,1.20
2023-02-17T19:32:16.441Z,0.88
2023-02-17T19:34:44.384Z,1.30
2023-02-17T19:37:12.323Z,1.30
2023-02-17T19:39:40.300Z,1.10
2023-02-17T19:42:09.573Z,1.52
2023-02-17T19:44:37.485Z,1.20
2023-02-17T19:47:05.424Z,1.25
2023-02-17T19:49:34.277Z,1.67
2023-02-17T19:52:02.381Z,1.42
2023-02-17T19:54:30.320Z,1.58
2023-02-17T19:56:58.268Z,1.67
2023-02-17T19:59:27.505Z,1.38
2023-02-17T20:01:55.449Z,1.33
2023-02-17T20:04:23.360Z,1.52
2023-02-17T20:06:52.625Z,1.65
2023-02-17T20:09:22.730Z,1.75
2023-02-17T20:11:53.018Z,1.58
2023-02-17T20:14:21.772Z,1.52
2023-02-17T20:16:53.275Z,1.55
2023-02-17T20:19:21.517Z,1.60
2023-02-17T20:21:49.375Z,1.10
2023-02-17T20:24:17.304Z,1.52
2023-02-17T20:26:48.893Z,1.85
2023-02-17T20:29:16.805Z,1.73
2023-02-17T20:31:44.817Z,1.80
2023-02-17T20:34:27.186Z,1.35
2023-02-17T20:36:55.750Z,1.63
2023-02-17T20:39:23.762Z,1.95
2023-02-17T20:41:51.660Z,1.70
2023-02-17T20:44:19.714Z,1.58
2023-02-17T20:46:48.177Z,2.38
2023-02-17T20:49:16.250Z,1.85
2023-02-17T20:51:45.544Z,1.80
2023-02-17T20:54:13.545Z,1.60
2023-02-17T20:56:44.415Z,2.50
2023-02-17T20:59:13.945Z,2.28
2023-02-17T21:01:42.835Z,1.90
2023-02-17T21:04:14.006Z,2.08
2023-02-17T21:06:43.196Z,1.92
2023-02-17T21:09:15.937Z,1.85
2023-02-17T21:11:44.329Z,3.63
2023-02-17T21:14:12.367Z,1.85
2023-02-17T21:16:40.439Z,3.72
2023-02-17T21:19:08.620Z,1.73
2023-02-17T21:21:36.717Z,1.95
2023-02-17T21:24:04.855Z,2.65
2023-02-17T21:26:35.014Z,3.72
2023-02-17T21:29:03.460Z,1.83
2023-02-17T21:31:31.964Z,1.65
2023-02-17T21:34:00.920Z,1.50
2023-02-17T21:36:29.590Z,1.85
2023-02-17T21:38:57.650Z,1.70
2023-02-17T21:41:27.608Z,2.22
2023-02-17T21:44:16.197Z,1.83
2023-02-17T21:46:45.140Z,1.27
2023-02-17T21:49:13.565Z,2.63
2023-02-17T21:51:42.072Z,2.03
2023-02-17T21:54:11.090Z,1.77
2023-02-17T21:56:39.378Z,1.70
2023-02-17T21:59:09.256Z,1.77
2023-02-17T22:01:37.760Z,2.20
2023-02-17T22:04:06.157Z,2.53
2023-02-17T22:06:36.263Z,1.67
2023-02-17T22:09:06.906Z,1.92
2023-02-17T22:11:36.972Z,1.92
2023-02-17T22:14:07.223Z,2.03
2023-02-17T22:16:40.011Z,2.78
2023-02-17T22:19:10.591Z,1.95
2023-02-17T22:21:40.150Z,1.75
2023-02-17T22:24:08.481Z,1.90
2023-02-17T22:26:36.375Z,1.50
2023-02-17T22:29:06.877Z,1.98
2023-02-17T22:31:36.562Z,2.00
2023-02-17T22:34:07.020Z,2.58
2023-02-17T22:36:36.845Z,1.85
2023-02-17T22:39:06.371Z,2.75
2023-02-17T22:41:35.148Z,1.98
2023-02-17T22:44:04.054Z,1.98
2023-02-17T22:46:32.454Z,2.05
2023-02-17T22:49:02.626Z,2.25
2023-02-17T22:51:32.827Z,2.60
2023-02-17T22:54:02.300Z,1.98
2023-02-17T22:56:31.012Z,2.75
2023-02-17T22:59:01.025Z,1.83
2023-02-17T23:01:30.851Z,3.33
2023-02-17T23:03:58.860Z,2.35
2023-02-17T23:06:29.920Z,2.67
2023-02-17T23:08:59.445Z,1.85
2023-02-17T23:11:47.604Z,2.15
2023-02-17T23:14:17.094Z,2.35
2023-02-17T23:16:45.389Z,1.70
2023-02-17T23:19:15.282Z,2.40
2023-02-17T23:21:45.730Z,2.80
2023-02-17T23:24:15.056Z,2.30
2023-02-17T23:26:43.024Z,1.90
2023-02-17T23:29:11.254Z,2.63
2023-02-17T23:31:39.590Z,2.15
2023-02-17T23:34:07.870Z,2.65
2023-02-17T23:36:38.978Z,2.13
2023-02-17T23:39:08.505Z,2.33
2023-02-17T23:41:36.997Z,2.03
2023-02-17T23:44:05.624Z,2.10
2023-02-17T23:46:33.590Z,2.35
2023-02-17T23:49:01.534Z,3.00
2023-02-17T23:51:29.437Z,2.20
2023-02-17T23:53:57.248Z,2.08
2023-02-17T23:56:28.429Z,2.15
2023-02-17T23:58:56.383Z,2.67
